sensor_id;sensor_type;location;lat;lon;timestamp;pressure;altitude;pressure_sealevel;temperature;humidity
8366;BME280;4220;42.502;24.188;2023-02-12T00:00:17;96075.44;;;0.57;50.35
8366;BME280;4220;42.502;24.188;2023-02-12T00:02:46;96092.44;;;0.52;51.11
8366;BME280;4220;42.502;24.188;2023-02-12T00:05:13;96086.44;;;0.51;51.27
8366;BME280;4220;42.502;24.188;2023-02-12T00:07:40;96078.03;;;0.48;51.37
8366;BME280;4220;42.502;24.188;2023-02-12T00:10:08;96080.78;;;0.46;51.72
8366;BME280;4220;42.502;24.188;2023-02-12T00:12:35;96087.22;;;0.42;51.87
8366;BME280;4220;42.502;24.188;2023-02-12T00:15:02;96084.91;;;0.39;52.06
8366;BME280;4220;42.502;24.188;2023-02-12T00:17:29;96082.31;;;0.39;52.16
8366;BME280;4220;42.502;24.188;2023-02-12T00:19:58;96061.38;;;0.20;52.11
8366;BME280;4220;42.502;24.188;2023-02-12T00:22:25;96065.13;;;0.37;52.46
8366;BME280;4220;42.502;24.188;2023-02-12T00:24:52;96062.78;;;0.34;52.74
8366;BME280;4220;42.502;24.188;2023-02-12T00:27:19;96086.53;;;0.31;52.71
8366;BME280;4220;42.502;24.188;2023-02-12T00:29:45;96060.16;;;0.24;52.77
8366;BME280;4220;42.502;24.188;2023-02-12T00:32:12;96077.44;;;0.25;52.84
8366;BME280;4220;42.502;24.188;2023-02-12T00:34:43;96071.81;;;0.20;53.00
8366;BME280;4220;42.502;24.188;2023-02-12T00:37:12;96063.84;;;0.12;53.35
8366;BME280;4220;42.502;24.188;2023-02-12T00:39:39;96076.31;;;0.09;53.63
8366;BME280;4220;42.502;24.188;2023-02-12T00:42:05;96017.91;;;-0.19;53.96
8366;BME280;4220;42.502;24.188;2023-02-12T00:44:32;96082.38;;;0.09;54.41
8366;BME280;4220;42.502;24.188;2023-02-12T00:46:59;96062.03;;;0.03;54.58
8366;BME280;4220;42.502;24.188;2023-02-12T00:49:27;96076.72;;;0.04;54.57
8366;BME280;4220;42.502;24.188;2023-02-12T00:51:58;96068.91;;;0.04;55.07
8366;BME280;4220;42.502;24.188;2023-02-12T00:54:26;96075.22;;;0.02;55.37
8366;BME280;4220;42.502;24.188;2023-02-12T00:56:53;96047.69;;;-0.12;55.67
8366;BME280;4220;42.502;24.188;2023-02-12T00:59:21;96049.50;;;-0.13;55.87
8366;BME280;4220;42.502;24.188;2023-02-12T01:01:48;96024.03;;;-0.39;56.30
8366;BME280;4220;42.502;24.188;2023-02-12T01:04:15;96060.31;;;-0.17;56.49
8366;BME280;4220;42.502;24.188;2023-02-12T01:06:42;96037.13;;;-0.20;56.86
8366;BME280;4220;42.502;24.188;2023-02-12T01:09:09;96035.06;;;-0.17;56.89
8366;BME280;4220;42.502;24.188;2023-02-12T01:11:38;96032.34;;;-0.15;56.65
8366;BME280;4220;42.502;24.188;2023-02-12T01:14:05;96012.44;;;-0.16;56.90
8366;BME280;4220;42.502;24.188;2023-02-12T01:16:32;95996.22;;;-0.29;57.16
8366;BME280;4220;42.502;24.188;2023-02-12T01:19:01;96011.59;;;-0.17;57.22
8366;BME280;4220;42.502;24.188;2023-02-12T01:21:31;96002.41;;;-0.21;57.65
8366;BME280;4220;42.502;24.188;2023-02-12T01:23:59;96005.16;;;-0.22;57.57
8366;BME280;4220;42.502;24.188;2023-02-12T01:26:27;96001.59;;;-0.21;57.60
8366;BME280;4220;42.502;24.188;2023-02-12T01:28:57;96003.94;;;-0.18;57.87
8366;BME280;4220;42.502;24.188;2023-02-12T01:31:27;96026.03;;;-0.22;57.58
8366;BME280;4220;42.502;24.188;2023-02-12T01:33:57;95970.78;;;-0.46;57.45
8366;BME280;4220;42.502;24.188;2023-02-12T01:36:25;96004.63;;;-0.16;57.32
8366;BME280;4220;42.502;24.188;2023-02-12T01:38:52;96014.47;;;-0.20;57.24
8366;BME280;4220;42.502;24.188;2023-02-12T01:41:21;96002.66;;;-0.33;57.74
8366;BME280;4220;42.502;24.188;2023-02-12T01:44:14;96014.88;;;-0.24;57.82
8366;BME280;4220;42.502;24.188;2023-02-12T01:46:44;96015.00;;;-0.35;58.23
8366;BME280;4220;42.502;24.188;2023-02-12T01:49:14;95985.91;;;-0.40;58.71
8366;BME280;4220;42.502;24.188;2023-02-12T01:51:43;96006.91;;;-0.32;58.60
8366;BME280;4220;42.502;24.188;2023-02-12T01:54:12;95998.28;;;-0.33;58.45
8366;BME280;4220;42.502;24.188;2023-02-12T01:56:41;95990.56;;;-0.34;58.88
8366;BME280;4220;42.502;24.188;2023-02-12T01:59:08;95984.66;;;-0.36;59.11
8366;BME280;4220;42.502;24.188;2023-02-12T02:01:37;95977.50;;;-0.44;60.00
8366;BME280;4220;42.502;24.188;2023-02-12T02:04:06;95985.34;;;-0.44;60.11
8366;BME280;4220;42.502;24.188;2023-02-12T02:06:37;95992.88;;;-0.50;60.46
8366;BME280;4220;42.502;24.188;2023-02-12T02:09:08;95979.25;;;-0.54;60.95
8366;BME280;4220;42.502;24.188;2023-02-12T02:11:35;95979.81;;;-0.60;60.91
8366;BME280;4220;42.502;24.188;2023-02-12T02:14:19;95987.63;;;-0.60;61.41
8366;BME280;4220;42.502;24.188;2023-02-12T02:23:33;95994.78;;;-0.52;60.46
8366;BME280;4220;42.502;24.188;2023-02-12T02:32:01;95980.63;;;-0.59;60.98
8366;BME280;4220;42.502;24.188;2023-02-12T02:34:35;95976.94;;;-0.57;61.02
8366;BME280;4220;42.502;24.188;2023-02-12T02:37:10;95993.78;;;-0.61;61.49
8366;BME280;4220;42.502;24.188;2023-02-12T02:39:44;95983.63;;;-0.64;61.51
8366;BME280;4220;42.502;24.188;2023-02-12T02:42:16;95985.16;;;-0.61;60.89
8366;BME280;4220;42.502;24.188;2023-02-12T02:44:49;96008.59;;;-0.61;61.33
8366;BME280;4220;42.502;24.188;2023-02-12T02:47:22;96015.19;;;-0.57;60.87
8366;BME280;4220;42.502;24.188;2023-02-12T02:49:53;95995.88;;;-0.55;60.49
8366;BME280;4220;42.502;24.188;2023-02-12T02:52:28;95989.97;;;-0.57;60.37
8366;BME280;4220;42.502;24.188;2023-02-12T02:55:02;96003.78;;;-0.56;60.45
8366;BME280;4220;42.502;24.188;2023-02-12T02:57:35;95987.47;;;-0.58;60.18
8366;BME280;4220;42.502;24.188;2023-02-12T03:00:06;95980.06;;;-0.63;60.31
8366;BME280;4220;42.502;24.188;2023-02-12T03:02:42;95993.94;;;-0.53;60.21
8366;BME280;4220;42.502;24.188;2023-02-12T03:05:15;95992.19;;;-0.52;60.41
8366;BME280;4220;42.502;24.188;2023-02-12T03:07:48;95998.06;;;-0.50;60.04
8366;BME280;4220;42.502;24.188;2023-02-12T03:10:19;96004.81;;;-0.48;60.11
8366;BME280;4220;42.502;24.188;2023-02-12T03:12:52;96003.97;;;-0.48;60.18
8366;BME280;4220;42.502;24.188;2023-02-12T03:15:24;95996.84;;;-0.46;60.40
8366;BME280;4220;42.502;24.188;2023-02-12T03:17:55;96004.66;;;-0.46;60.22
8366;BME280;4220;42.502;24.188;2023-02-12T03:20:26;96005.63;;;-0.47;60.90
8366;BME280;4220;42.502;24.188;2023-02-12T03:22:57;95996.03;;;-0.47;61.07
8366;BME280;4220;42.502;24.188;2023-02-12T03:25:32;96001.63;;;-0.51;61.56
8366;BME280;4220;42.502;24.188;2023-02-12T03:28:03;96004.78;;;-0.57;61.96
8366;BME280;4220;42.502;24.188;2023-02-12T03:30:35;96003.38;;;-0.61;61.91
8366;BME280;4220;42.502;24.188;2023-02-12T03:33:18;95995.41;;;-0.70;62.96
8366;BME280;4220;42.502;24.188;2023-02-12T03:35:53;96006.38;;;-0.66;63.25
8366;BME280;4220;42.502;24.188;2023-02-12T03:38:33;95996.59;;;-0.74;63.85
8366;BME280;4220;42.502;24.188;2023-02-12T03:41:04;96010.34;;;-0.72;64.02
8366;BME280;4220;42.502;24.188;2023-02-12T03:43:42;96006.56;;;-0.79;64.19
8366;BME280;4220;42.502;24.188;2023-02-12T03:46:18;96021.13;;;-0.76;64.11
8366;BME280;4220;42.502;24.188;2023-02-12T03:48:55;96020.56;;;-0.80;64.97
8366;BME280;4220;42.502;24.188;2023-02-12T03:51:28;96019.50;;;-0.77;64.59
8366;BME280;4220;42.502;24.188;2023-02-12T03:53:56;96020.31;;;-0.77;64.25
8366;BME280;4220;42.502;24.188;2023-02-12T03:56:26;96018.25;;;-0.73;63.90
8366;BME280;4220;42.502;24.188;2023-02-12T03:58:54;96020.88;;;-0.73;64.29
8366;BME280;4220;42.502;24.188;2023-02-12T04:01:21;96020.03;;;-0.74;64.31
8366;BME280;4220;42.502;24.188;2023-02-12T04:03:50;96008.25;;;-0.78;64.05
8366;BME280;4220;42.502;24.188;2023-02-12T04:06:22;96021.84;;;-0.74;64.32
8366;BME280;4220;42.502;24.188;2023-02-12T04:08:50;96029.38;;;-0.71;63.95
8366;BME280;4220;42.502;24.188;2023-02-12T04:11:25;96009.91;;;-0.77;64.87
8366;BME280;4220;42.502;24.188;2023-02-12T04:14:12;96021.69;;;-0.73;63.83
8366;BME280;4220;42.502;24.188;2023-02-12T04:16:45;96017.19;;;-0.71;63.82
8366;BME280;4220;42.502;24.188;2023-02-12T04:19:19;95992.63;;;-0.78;63.93
8366;BME280;4220;42.502;24.188;2023-02-12T04:22:02;95968.41;;;-0.99;63.69
8366;BME280;4220;42.502;24.188;2023-02-12T04:24:37;96009.13;;;-0.68;63.66
8366;BME280;4220;42.502;24.188;2023-02-12T04:27:10;96024.31;;;-0.73;63.63
8366;BME280;4220;42.502;24.188;2023-02-12T04:29:46;96023.50;;;-0.63;62.91
8366;BME280;4220;42.502;24.188;2023-02-12T04:32:18;96016.53;;;-0.63;63.10
8366;BME280;4220;42.502;24.188;2023-02-12T04:34:52;96021.75;;;-0.63;62.93
8366;BME280;4220;42.502;24.188;2023-02-12T04:37:25;96027.53;;;-0.59;62.53
8366;BME280;4220;42.502;24.188;2023-02-12T04:39:55;96042.06;;;-0.57;62.22
8366;BME280;4220;42.502;24.188;2023-02-12T04:42:24;96033.44;;;-0.57;62.82
8366;BME280;4220;42.502;24.188;2023-02-12T04:44:51;96028.06;;;-0.56;62.82
8366;BME280;4220;42.502;24.188;2023-02-12T04:47:18;96029.59;;;-0.53;62.63
8366;BME280;4220;42.502;24.188;2023-02-12T04:49:45;96035.88;;;-0.56;62.93
8366;BME280;4220;42.502;24.188;2023-02-12T04:52:13;96005.63;;;-0.78;62.79
8366;BME280;4220;42.502;24.188;2023-02-12T04:54:40;96044.13;;;-0.51;62.41
8366;BME280;4220;42.502;24.188;2023-02-12T04:57:08;96026.97;;;-0.53;62.25
8366;BME280;4220;42.502;24.188;2023-02-12T04:59:34;96048.94;;;-0.46;62.58
8366;BME280;4220;42.502;24.188;2023-02-12T05:02:01;96056.66;;;-0.45;62.31
8366;BME280;4220;42.502;24.188;2023-02-12T05:04:28;96058.56;;;-0.47;63.08
8366;BME280;4220;42.502;24.188;2023-02-12T05:06:55;96051.69;;;-0.48;63.40
8366;BME280;4220;42.502;24.188;2023-02-12T05:09:23;96065.41;;;-0.46;63.32
8366;BME280;4220;42.502;24.188;2023-02-12T05:11:50;96062.56;;;-0.43;62.89
8366;BME280;4220;42.502;24.188;2023-02-12T05:14:17;96057.50;;;-0.44;62.78
8366;BME280;4220;42.502;24.188;2023-02-12T05:16:44;96058.88;;;-0.40;63.00
8366;BME280;4220;42.502;24.188;2023-02-12T05:19:10;96064.06;;;-0.40;62.69
8366;BME280;4220;42.502;24.188;2023-02-12T05:21:37;96078.50;;;-0.36;62.94
8366;BME280;4220;42.502;24.188;2023-02-12T05:24:05;96071.50;;;-0.36;62.99
8366;BME280;4220;42.502;24.188;2023-02-12T05:26:33;96078.50;;;-0.36;63.67
8366;BME280;4220;42.502;24.188;2023-02-12T05:29:00;96102.78;;;-0.36;63.74
8366;BME280;4220;42.502;24.188;2023-02-12T05:31:27;96075.19;;;-0.38;63.91
8366;BME280;4220;42.502;24.188;2023-02-12T05:33:54;96089.16;;;-0.39;64.06
8366;BME280;4220;42.502;24.188;2023-02-12T05:36:22;96100.56;;;-0.40;63.82
8366;BME280;4220;42.502;24.188;2023-02-12T05:38:50;96091.53;;;-0.36;63.96
8366;BME280;4220;42.502;24.188;2023-02-12T05:41:19;96109.66;;;-0.35;63.86
8366;BME280;4220;42.502;24.188;2023-02-12T05:43:48;96090.31;;;-0.32;63.61
8366;BME280;4220;42.502;24.188;2023-02-12T05:46:16;96088.41;;;-0.30;63.38
8366;BME280;4220;42.502;24.188;2023-02-12T05:48:43;96108.16;;;-0.28;63.31
8366;BME280;4220;42.502;24.188;2023-02-12T05:51:12;96104.47;;;-0.25;63.40
8366;BME280;4220;42.502;24.188;2023-02-12T05:53:40;96121.75;;;-0.24;63.59
8366;BME280;4220;42.502;24.188;2023-02-12T05:56:09;96118.06;;;-0.22;63.13
8366;BME280;4220;42.502;24.188;2023-02-12T05:58:36;96115.75;;;-0.25;63.31
8366;BME280;4220;42.502;24.188;2023-02-12T06:01:08;96108.06;;;-0.17;62.91
8366;BME280;4220;42.502;24.188;2023-02-12T06:03:36;96124.28;;;-0.13;62.40
8366;BME280;4220;42.502;24.188;2023-02-12T06:06:03;96120.00;;;-0.14;62.22
8366;BME280;4220;42.502;24.188;2023-02-12T06:08:30;96128.53;;;-0.12;62.17
8366;BME280;4220;42.502;24.188;2023-02-12T06:10:59;96124.81;;;-0.10;62.32
8366;BME280;4220;42.502;24.188;2023-02-12T06:13:27;96131.56;;;-0.07;62.16
8366;BME280;4220;42.502;24.188;2023-02-12T06:15:53;96131.44;;;-0.06;62.46
8366;BME280;4220;42.502;24.188;2023-02-12T06:18:22;96128.69;;;-0.04;62.59
8366;BME280;4220;42.502;24.188;2023-02-12T06:20:48;96139.72;;;-0.01;62.56
8366;BME280;4220;42.502;24.188;2023-02-12T06:23:15;96131.50;;;0.04;62.00
8366;BME280;4220;42.502;24.188;2023-02-12T06:25:42;96126.78;;;-0.02;62.26
8366;BME280;4220;42.502;24.188;2023-02-12T06:28:09;96141.91;;;0.04;62.03
8366;BME280;4220;42.502;24.188;2023-02-12T06:30:36;96154.56;;;0.09;61.80
8366;BME280;4220;42.502;24.188;2023-02-12T06:33:03;96134.09;;;0.04;61.94
8366;BME280;4220;42.502;24.188;2023-02-12T06:35:33;96152.91;;;0.08;61.89
8366;BME280;4220;42.502;24.188;2023-02-12T06:38:00;96142.34;;;0.09;61.66
8366;BME280;4220;42.502;24.188;2023-02-12T06:40:27;96136.72;;;0.14;61.89
8366;BME280;4220;42.502;24.188;2023-02-12T06:42:54;96144.16;;;0.18;61.78
8366;BME280;4220;42.502;24.188;2023-02-12T06:45:21;96150.75;;;0.22;61.38
8366;BME280;4220;42.502;24.188;2023-02-12T06:47:48;96151.06;;;0.29;61.13
8366;BME280;4220;42.502;24.188;2023-02-12T06:50:15;96141.72;;;0.26;60.95
8366;BME280;4220;42.502;24.188;2023-02-12T06:52:43;96155.44;;;0.28;60.68
8366;BME280;4220;42.502;24.188;2023-02-12T06:55:10;96158.50;;;0.33;60.70
8366;BME280;4220;42.502;24.188;2023-02-12T06:57:37;96116.97;;;0.11;60.40
8366;BME280;4220;42.502;24.188;2023-02-12T07:00:06;96155.72;;;0.35;60.95
8366;BME280;4220;42.502;24.188;2023-02-12T07:02:33;96156.47;;;0.37;61.04
8366;BME280;4220;42.502;24.188;2023-02-12T07:05:00;96167.16;;;0.43;61.58
8366;BME280;4220;42.502;24.188;2023-02-12T07:07:26;96172.00;;;0.48;61.62
8366;BME280;4220;42.502;24.188;2023-02-12T07:09:55;96163.47;;;0.46;62.08
8366;BME280;4220;42.502;24.188;2023-02-12T07:12:21;96166.19;;;0.44;62.96
8366;BME280;4220;42.502;24.188;2023-02-12T07:14:48;96164.72;;;0.51;63.22
8366;BME280;4220;42.502;24.188;2023-02-12T07:17:15;96195.22;;;0.51;63.83
8366;BME280;4220;42.502;24.188;2023-02-12T07:19:42;96163.50;;;0.55;64.75
8366;BME280;4220;42.502;24.188;2023-02-12T07:22:09;96177.38;;;0.56;64.08
8366;BME280;4220;42.502;24.188;2023-02-12T07:24:35;96159.50;;;0.51;64.37
8366;BME280;4220;42.502;24.188;2023-02-12T07:27:04;96162.41;;;0.58;64.68
8366;BME280;4220;42.502;24.188;2023-02-12T07:29:31;96161.81;;;0.54;64.82
8366;BME280;4220;42.502;24.188;2023-02-12T07:31:59;96137.53;;;0.54;65.98
8366;BME280;4220;42.502;24.188;2023-02-12T07:34:26;96151.28;;;0.65;66.51
8366;BME280;4220;42.502;24.188;2023-02-12T07:36:53;96150.03;;;0.70;66.63
8366;BME280;4220;42.502;24.188;2023-02-12T07:39:19;96140.44;;;0.70;67.34
8366;BME280;4220;42.502;24.188;2023-02-12T07:41:46;96132.75;;;0.78;66.40
8366;BME280;4220;42.502;24.188;2023-02-12T07:44:15;96137.56;;;0.83;65.85
8366;BME280;4220;42.502;24.188;2023-02-12T07:46:43;96122.59;;;0.85;65.93
8366;BME280;4220;42.502;24.188;2023-02-12T07:49:12;96136.88;;;0.90;66.85
8366;BME280;4220;42.502;24.188;2023-02-12T07:51:39;96093.03;;;0.75;66.18
8366;BME280;4220;42.502;24.188;2023-02-12T07:54:06;96102.94;;;0.81;67.04
8366;BME280;4220;42.502;24.188;2023-02-12T07:56:35;96150.09;;;1.08;67.00
8366;BME280;4220;42.502;24.188;2023-02-12T07:59:04;96114.34;;;0.80;67.31
8366;BME280;4220;42.502;24.188;2023-02-12T08:01:34;96122.03;;;1.00;67.77
8366;BME280;4220;42.502;24.188;2023-02-12T08:04:04;96147.19;;;1.20;67.72
8366;BME280;4220;42.502;24.188;2023-02-12T08:06:33;96128.75;;;1.31;67.12
8366;BME280;4220;42.502;24.188;2023-02-12T08:09:02;96142.09;;;1.28;66.61
8366;BME280;4220;42.502;24.188;2023-02-12T08:11:30;96143.75;;;1.29;66.65
8366;BME280;4220;42.502;24.188;2023-02-12T08:13:58;96097.84;;;1.08;67.37
8366;BME280;4220;42.502;24.188;2023-02-12T08:16:27;96138.66;;;1.28;67.54
8366;BME280;4220;42.502;24.188;2023-02-12T08:18:57;96116.66;;;1.21;67.46
8366;BME280;4220;42.502;24.188;2023-02-12T08:21:25;96116.53;;;1.13;68.78
8366;BME280;4220;42.502;24.188;2023-02-12T08:23:53;96122.28;;;1.26;68.54
8366;BME280;4220;42.502;24.188;2023-02-12T08:26:22;96124.22;;;1.33;68.66
8366;BME280;4220;42.502;24.188;2023-02-12T08:28:50;96118.44;;;1.40;68.74
8366;BME280;4220;42.502;24.188;2023-02-12T08:31:19;96057.97;;;1.15;68.30
8366;BME280;4220;42.502;24.188;2023-02-12T08:33:48;96110.28;;;1.52;68.73
8366;BME280;4220;42.502;24.188;2023-02-12T08:36:18;96148.78;;;1.69;68.04
8366;BME280;4220;42.502;24.188;2023-02-12T08:38:46;96116.66;;;1.86;67.17
8366;BME280;4220;42.502;24.188;2023-02-12T08:41:14;96124.31;;;1.97;65.52
8366;BME280;4220;42.502;24.188;2023-02-12T08:43:41;96135.00;;;2.14;64.46
8366;BME280;4220;42.502;24.188;2023-02-12T08:46:10;96126.56;;;2.47;62.49
8366;BME280;4220;42.502;24.188;2023-02-12T08:48:38;96137.91;;;2.65;60.96
8366;BME280;4220;42.502;24.188;2023-02-12T08:51:07;96137.25;;;2.81;60.97
8366;BME280;4220;42.502;24.188;2023-02-12T08:53:37;96132.19;;;2.97;60.34
8366;BME280;4220;42.502;24.188;2023-02-12T08:56:05;96128.81;;;3.04;58.78
8366;BME280;4220;42.502;24.188;2023-02-12T08:58:33;96127.81;;;3.05;59.32
8366;BME280;4220;42.502;24.188;2023-02-12T09:01:00;96133.59;;;3.09;58.13
8366;BME280;4220;42.502;24.188;2023-02-12T09:03:27;96124.44;;;3.13;58.42
8366;BME280;4220;42.502;24.188;2023-02-12T09:05:54;96156.28;;;3.36;57.36
8366;BME280;4220;42.502;24.188;2023-02-12T09:08:21;96140.25;;;3.39;56.17
8366;BME280;4220;42.502;24.188;2023-02-12T09:10:49;96137.38;;;3.50;55.82
8366;BME280;4220;42.502;24.188;2023-02-12T09:13:16;96144.38;;;3.67;55.80
8366;BME280;4220;42.502;24.188;2023-02-12T09:15:44;96148.72;;;3.76;55.02
8366;BME280;4220;42.502;24.188;2023-02-12T09:18:12;96150.72;;;3.82;54.95
8366;BME280;4220;42.502;24.188;2023-02-12T09:20:42;96150.47;;;3.93;54.54
8366;BME280;4220;42.502;24.188;2023-02-12T09:23:10;96156.69;;;3.92;54.31
8366;BME280;4220;42.502;24.188;2023-02-12T09:25:39;96149.69;;;4.01;54.87
8366;BME280;4220;42.502;24.188;2023-02-12T09:28:07;96161.38;;;4.06;55.07
8366;BME280;4220;42.502;24.188;2023-02-12T09:30:35;96142.84;;;4.08;54.48
8366;BME280;4220;42.502;24.188;2023-02-12T09:33:03;96117.75;;;3.79;54.16
8366;BME280;4220;42.502;24.188;2023-02-12T09:35:33;96146.56;;;3.97;55.15
8366;BME280;4220;42.502;24.188;2023-02-12T09:38:00;96158.03;;;3.96;54.27
8366;BME280;4220;42.502;24.188;2023-02-12T09:40:36;96158.50;;;3.91;53.72
8366;BME280;4220;42.502;24.188;2023-02-12T09:43:15;96160.97;;;3.93;54.23
8366;BME280;4220;42.502;24.188;2023-02-12T09:45:46;96159.00;;;3.95;54.76
8366;BME280;4220;42.502;24.188;2023-02-12T09:48:35;96148.72;;;4.02;54.42
8366;BME280;4220;42.502;24.188;2023-02-12T09:51:05;96147.38;;;3.97;54.18
8366;BME280;4220;42.502;24.188;2023-02-12T09:53:35;96145.31;;;3.83;55.43
8366;BME280;4220;42.502;24.188;2023-02-12T09:56:08;96152.31;;;3.75;55.11
8366;BME280;4220;42.502;24.188;2023-02-12T09:58:42;96159.88;;;4.04;55.15
8366;BME280;4220;42.502;24.188;2023-02-12T10:01:12;96080.41;;;3.60;55.02
8366;BME280;4220;42.502;24.188;2023-02-12T10:03:39;96156.63;;;4.10;54.97
8366;BME280;4220;42.502;24.188;2023-02-12T10:06:12;96151.28;;;4.19;54.32
8366;BME280;4220;42.502;24.188;2023-02-12T10:08:48;96143.44;;;4.27;54.14
8366;BME280;4220;42.502;24.188;2023-02-12T10:11:27;96158.31;;;4.52;54.11
8366;BME280;4220;42.502;24.188;2023-02-12T10:14:07;96159.75;;;4.81;51.87
8366;BME280;4220;42.502;24.188;2023-02-12T10:16:43;96164.84;;;4.90;51.80
8366;BME280;4220;42.502;24.188;2023-02-12T10:19:32;96164.69;;;4.92;52.34
8366;BME280;4220;42.502;24.188;2023-02-12T10:22:13;96139.34;;;4.75;52.56
8366;BME280;4220;42.502;24.188;2023-02-12T10:24:55;96124.50;;;4.57;52.86
8366;BME280;4220;42.502;24.188;2023-02-12T10:27:35;96172.22;;;4.79;53.71
8366;BME280;4220;42.502;24.188;2023-02-12T10:32:42;96179.22;;;5.20;53.06
8366;BME280;4220;42.502;24.188;2023-02-12T10:35:12;96175.66;;;5.45;51.40
8366;BME280;4220;42.502;24.188;2023-02-12T10:37:42;96183.19;;;5.80;50.66
8366;BME280;4220;42.502;24.188;2023-02-12T10:40:17;96177.63;;;6.00;50.02
8366;BME280;4220;42.502;24.188;2023-02-12T10:42:47;96178.94;;;6.04;48.21
8366;BME280;4220;42.502;24.188;2023-02-12T10:45:19;96178.44;;;6.00;47.71
8366;BME280;4220;42.502;24.188;2023-02-12T10:47:50;96195.22;;;6.23;46.46
8366;BME280;4220;42.502;24.188;2023-02-12T10:50:23;96201.56;;;6.53;46.47
8366;BME280;4220;42.502;24.188;2023-02-12T10:52:56;96195.19;;;6.78;45.68
8366;BME280;4220;42.502;24.188;2023-02-12T10:55:27;96196.19;;;6.30;47.82
8366;BME280;4220;42.502;24.188;2023-02-12T10:57:57;96189.84;;;5.84;50.83
8366;BME280;4220;42.502;24.188;2023-02-12T11:00:29;96205.41;;;5.54;50.82
8366;BME280;4220;42.502;24.188;2023-02-12T11:03:03;96206.53;;;5.43;51.16
8366;BME280;4220;42.502;24.188;2023-02-12T11:05:32;96195.03;;;5.60;51.24
8366;BME280;4220;42.502;24.188;2023-02-12T11:08:00;96201.66;;;5.72;51.05
8366;BME280;4220;42.502;24.188;2023-02-12T11:10:29;96204.31;;;5.97;51.46
8366;BME280;4220;42.502;24.188;2023-02-12T11:12:57;96205.63;;;5.84;50.42
8366;BME280;4220;42.502;24.188;2023-02-12T11:15:29;96211.16;;;5.65;49.92
8366;BME280;4220;42.502;24.188;2023-02-12T11:18:02;96217.41;;;5.80;49.98
8366;BME280;4220;42.502;24.188;2023-02-12T11:20:33;96219.59;;;5.93;49.62
8366;BME280;4220;42.502;24.188;2023-02-12T11:23:04;96216.78;;;6.03;48.50
8366;BME280;4220;42.502;24.188;2023-02-12T11:25:33;96218.91;;;5.83;48.61
8366;BME280;4220;42.502;24.188;2023-02-12T11:28:04;96198.53;;;5.77;48.67
8366;BME280;4220;42.502;24.188;2023-02-12T11:30:33;96225.50;;;5.95;48.81
8366;BME280;4220;42.502;24.188;2023-02-12T11:33:14;96215.47;;;5.90;48.18
8366;BME280;4220;42.502;24.188;2023-02-12T11:35:49;96180.94;;;5.85;47.75
8366;BME280;4220;42.502;24.188;2023-02-12T11:38:22;96200.16;;;6.02;47.20
8366;BME280;4220;42.502;24.188;2023-02-12T11:40:51;96217.13;;;6.08;47.79
8366;BME280;4220;42.502;24.188;2023-02-12T11:43:19;96215.50;;;5.99;48.05
8366;BME280;4220;42.502;24.188;2023-02-12T11:45:49;96223.22;;;6.08;48.59
8366;BME280;4220;42.502;24.188;2023-02-12T11:48:21;96223.22;;;5.92;48.77
8366;BME280;4220;42.502;24.188;2023-02-12T11:50:50;96236.06;;;5.87;50.33
8366;BME280;4220;42.502;24.188;2023-02-12T11:53:21;96215.72;;;5.23;53.53
8366;BME280;4220;42.502;24.188;2023-02-12T11:55:53;96179.97;;;4.88;55.06
8366;BME280;4220;42.502;24.188;2023-02-12T11:58:22;96232.06;;;4.93;56.67
8366;BME280;4220;42.502;24.188;2023-02-12T12:00:55;96221.69;;;4.83;56.95
8366;BME280;4220;42.502;24.188;2023-02-12T12:03:27;96218.59;;;4.62;59.10
8366;BME280;4220;42.502;24.188;2023-02-12T12:05:59;96217.47;;;4.56;59.91
8366;BME280;4220;42.502;24.188;2023-02-12T12:08:34;96206.13;;;4.56;59.98
8366;BME280;4220;42.502;24.188;2023-02-12T12:11:06;96196.22;;;4.50;60.04
8366;BME280;4220;42.502;24.188;2023-02-12T12:13:40;96213.47;;;4.52;59.39
8366;BME280;4220;42.502;24.188;2023-02-12T12:16:13;96222.06;;;4.54;60.34
8366;BME280;4220;42.502;24.188;2023-02-12T12:19:04;96213.91;;;4.40;61.50
8366;BME280;4220;42.502;24.188;2023-02-12T12:21:54;96223.50;;;4.23;61.66
8366;BME280;4220;42.502;24.188;2023-02-12T12:24:27;96174.03;;;3.85;62.22
8366;BME280;4220;42.502;24.188;2023-02-12T12:26:59;96224.78;;;4.19;62.42
8366;BME280;4220;42.502;24.188;2023-02-12T12:29:40;96235.34;;;4.27;61.05
8366;BME280;4220;42.502;24.188;2023-02-12T12:32:15;96233.22;;;4.31;60.71
8366;BME280;4220;42.502;24.188;2023-02-12T12:34:44;96222.59;;;4.40;60.06
8366;BME280;4220;42.502;24.188;2023-02-12T12:37:18;96220.66;;;4.42;60.65
8366;BME280;4220;42.502;24.188;2023-02-12T12:40:00;96191.97;;;4.23;60.33
8366;BME280;4220;42.502;24.188;2023-02-12T12:42:56;96234.53;;;4.60;58.19
8366;BME280;4220;42.502;24.188;2023-02-12T12:45:38;96225.75;;;4.78;57.41
8366;BME280;4220;42.502;24.188;2023-02-12T12:48:20;96227.47;;;4.95;58.04
8366;BME280;4220;42.502;24.188;2023-02-12T12:51:03;96232.09;;;5.01;58.36
8366;BME280;4220;42.502;24.188;2023-02-12T12:53:45;96219.28;;;5.06;56.88
8366;BME280;4220;42.502;24.188;2023-02-12T12:56:28;96229.47;;;5.09;56.91
8366;BME280;4220;42.502;24.188;2023-02-12T12:59:20;96218.75;;;4.94;57.70
8366;BME280;4220;42.502;24.188;2023-02-12T13:02:17;96225.84;;;5.02;56.23
8366;BME280;4220;42.502;24.188;2023-02-12T13:05:18;96241.41;;;5.45;53.69
8366;BME280;4220;42.502;24.188;2023-02-12T13:07:56;96225.38;;;5.97;52.03
8366;BME280;4220;42.502;24.188;2023-02-12T13:10:32;96250.03;;;6.36;49.81
8366;BME280;4220;42.502;24.188;2023-02-12T13:13:14;96240.97;;;6.38;49.54
8366;BME280;4220;42.502;24.188;2023-02-12T13:15:50;96250.59;;;6.70;48.98
8366;BME280;4220;42.502;24.188;2023-02-12T13:18:29;96236.50;;;6.94;49.92
8366;BME280;4220;42.502;24.188;2023-02-12T13:21:06;96251.50;;;6.93;49.68
8366;BME280;4220;42.502;24.188;2023-02-12T13:23:38;96244.13;;;6.81;49.41
8366;BME280;4220;42.502;24.188;2023-02-12T13:26:14;96265.41;;;6.79;49.51
8366;BME280;4220;42.502;24.188;2023-02-12T13:28:46;96250.56;;;6.78;49.65
8366;BME280;4220;42.502;24.188;2023-02-12T13:31:18;96261.72;;;6.96;49.51
8366;BME280;4220;42.502;24.188;2023-02-12T13:33:49;96244.94;;;6.89;49.11
8366;BME280;4220;42.502;24.188;2023-02-12T13:36:19;96261.78;;;6.80;48.76
8366;BME280;4220;42.502;24.188;2023-02-12T13:38:51;96249.88;;;6.92;48.94
8366;BME280;4220;42.502;24.188;2023-02-12T13:41:21;96267.94;;;7.03;48.79
8366;BME280;4220;42.502;24.188;2023-02-12T13:43:58;96266.22;;;6.88;49.60
8366;BME280;4220;42.502;24.188;2023-02-12T13:46:35;96259.41;;;7.01;49.02
8366;BME280;4220;42.502;24.188;2023-02-12T13:49:15;96267.94;;;7.11;48.94
8366;BME280;4220;42.502;24.188;2023-02-12T13:51:48;96274.91;;;6.96;49.00